sensor_id;sensor_type;location;lat;lon;timestamp;P1;durP1;ratioP1;P2;durP2;ratioP2
20482;SDS011;10400;53.198;6.592;2022-09-01T00:01:13;1.70;;;0.73;;
20482;SDS011;10400;53.198;6.592;2022-09-01T00:03:48;1.35;;;0.73;;
20482;SDS011;10400;53.198;6.592;2022-09-01T00:06:20;1.23;;;0.73;;
20482;SDS011;10400;53.198;6.592;2022-09-01T00:08:52;0.98;;;0.68;;
20482;SDS011;10400;53.198;6.592;2022-09-01T00:11:19;4.13;;;0.70;;
20482;SDS011;10400;53.198;6.592;2022-09-01T00:13:46;1.38;;;0.60;;
20482;SDS011;10400;53.198;6.592;2022-09-01T00:16:13;2.75;;;0.70;;
20482;SDS011;10400;53.198;6.592;2022-09-01T00:18:41;1.20;;;0.60;;
20482;SDS011;10400;53.198;6.592;2022-09-01T00:21:11;2.25;;;0.88;;
20482;SDS011;10400;53.198;6.592;2022-09-01T00:23:37;1.42;;;0.90;;
20482;SDS011;10400;53.198;6.592;2022-09-01T00:26:03;1.65;;;0.70;;
20482;SDS011;10400;53.198;6.592;2022-09-01T00:28:33;1.30;;;0.98;;
20482;SDS011;10400;53.198;6.592;2022-09-01T00:30:59;2.25;;;0.63;;
20482;SDS011;10400;53.198;6.592;2022-09-01T00:33:25;1.38;;;1.00;;
20482;SDS011;10400;53.198;6.592;2022-09-01T00:35:51;1.05;;;0.80;;
20482;SDS011;10400;53.198;6.592;2022-09-01T00:38:17;1.05;;;0.60;;
20482;SDS011;10400;53.198;6.592;2022-09-01T00:40:42;1.40;;;0.70;;
20482;SDS011;10400;53.198;6.592;2022-09-01T00:43:51;4.68;;;0.80;;
20482;SDS011;10400;53.198;6.592;2022-09-01T00:46:03;3.60;;;0.70;;
20482;SDS011;10400;53.198;6.592;2022-09-01T00:48:31;5.72;;;0.65;;
20482;SDS011;10400;53.198;6.592;2022-09-01T00:50:57;1.13;;;0.60;;
20482;SDS011;10400;53.198;6.592;2022-09-01T00:53:24;1.30;;;0.90;;
20482;SDS011;10400;53.198;6.592;2022-09-01T00:55:50;4.13;;;0.93;;
20482;SDS011;10400;53.198;6.592;2022-09-01T00:58:15;0.63;;;0.63;;
20482;SDS011;10400;53.198;6.592;2022-09-01T01:00:41;2.35;;;0.73;;
20482;SDS011;10400;53.198;6.592;2022-09-01T01:03:10;2.33;;;0.73;;
20482;SDS011;10400;53.198;6.592;2022-09-01T01:05:39;2.47;;;0.73;;
20482;SDS011;10400;53.198;6.592;2022-09-01T01:08:11;1.98;;;0.77;;
20482;SDS011;10400;53.198;6.592;2022-09-01T01:10:39;1.77;;;1.00;;
20482;SDS011;10400;53.198;6.592;2022-09-01T01:13:11;1.30;;;0.70;;
20482;SDS011;10400;53.198;6.592;2022-09-01T01:15:41;1.25;;;0.70;;
20482;SDS011;10400;53.198;6.592;2022-09-01T01:18:11;1.35;;;0.65;;
20482;SDS011;10400;53.198;6.592;2022-09-01T01:20:38;0.80;;;0.80;;
20482;SDS011;10400;53.198;6.592;2022-09-01T01:23:33;1.88;;;0.88;;
20482;SDS011;10400;53.198;6.592;2022-09-01T01:26:05;1.17;;;0.70;;
20482;SDS011;10400;53.198;6.592;2022-09-01T01:28:35;1.45;;;0.85;;
20482;SDS011;10400;53.198;6.592;2022-09-01T01:31:10;3.78;;;0.90;;
20482;SDS011;10400;53.198;6.592;2022-09-01T01:33:41;1.38;;;0.90;;
20482;SDS011;10400;53.198;6.592;2022-09-01T01:36:22;4.20;;;1.00;;
20482;SDS011;10400;53.198;6.592;2022-09-01T01:38:59;1.42;;;0.85;;
20482;SDS011;10400;53.198;6.592;2022-09-01T01:41:46;1.02;;;0.70;;
20482;SDS011;10400;53.198;6.592;2022-09-01T01:44:14;2.30;;;1.10;;
20482;SDS011;10400;53.198;6.592;2022-09-01T01:46:45;1.50;;;0.75;;
20482;SDS011;10400;53.198;6.592;2022-09-01T01:49:14;1.98;;;0.90;;
20482;SDS011;10400;53.198;6.592;2022-09-01T01:51:44;0.73;;;0.70;;
20482;SDS011;10400;53.198;6.592;2022-09-01T01:54:11;2.08;;;0.82;;
20482;SDS011;10400;53.198;6.592;2022-09-01T01:56:37;1.67;;;1.00;;
20482;SDS011;10400;53.198;6.592;2022-09-01T01:59:06;1.45;;;1.00;;
20482;SDS011;10400;53.198;6.592;2022-09-01T02:01:39;1.60;;;0.90;;
20482;SDS011;10400;53.198;6.592;2022-09-01T02:04:07;1.73;;;0.70;;
20482;SDS011;10400;53.198;6.592;2022-09-01T02:06:35;1.88;;;1.00;;
20482;SDS011;10400;53.198;6.592;2022-09-01T02:09:05;0.93;;;0.60;;
20482;SDS011;10400;53.198;6.592;2022-09-01T02:11:31;1.10;;;0.80;;
20482;SDS011;10400;53.198;6.592;2022-09-01T02:14:01;1.38;;;0.88;;
20482;SDS011;10400;53.198;6.592;2022-09-01T02:16:27;1.33;;;0.88;;
20482;SDS011;10400;53.198;6.592;2022-09-01T02:18:56;1.77;;;0.85;;
20482;SDS011;10400;53.198;6.592;2022-09-01T02:21:23;1.58;;;1.00;;
20482;SDS011;10400;53.198;6.592;2022-09-01T02:24:07;2.42;;;0.90;;
20482;SDS011;10400;53.198;6.592;2022-09-01T02:26:34;1.73;;;1.00;;
20482;SDS011;10400;53.198;6.592;2022-09-01T02:29:08;1.63;;;0.90;;
20482;SDS011;10400;53.198;6.592;2022-09-01T02:31:41;0.93;;;0.70;;
20482;SDS011;10400;53.198;6.592;2022-09-01T02:34:09;3.35;;;1.10;;
20482;SDS011;10400;53.198;6.592;2022-09-01T02:36:38;5.47;;;1.00;;
20482;SDS011;10400;53.198;6.592;2022-09-01T02:39:17;3.80;;;0.90;;
20482;SDS011;10400;53.198;6.592;2022-09-01T02:41:47;2.67;;;1.00;;
20482;SDS011;10400;53.198;6.592;2022-09-01T02:44:13;2.47;;;0.80;;
20482;SDS011;10400;53.198;6.592;2022-09-01T02:46:40;0.77;;;0.68;;
20482;SDS011;10400;53.198;6.592;2022-09-01T02:49:11;2.08;;;1.02;;
20482;SDS011;10400;53.198;6.592;2022-09-01T02:51:42;3.25;;;0.70;;
20482;SDS011;10400;53.198;6.592;2022-09-01T02:54:10;1.23;;;1.10;;
20482;SDS011;10400;53.198;6.592;2022-09-01T02:56:42;0.75;;;0.75;;
20482;SDS011;10400;53.198;6.592;2022-09-01T02:59:12;1.30;;;0.90;;
20482;SDS011;10400;53.198;6.592;2022-09-01T03:01:42;3.25;;;1.08;;
20482;SDS011;10400;53.198;6.592;2022-09-01T03:04:09;1.00;;;0.90;;
20482;SDS011;10400;53.198;6.592;2022-09-01T03:06:37;1.45;;;0.80;;
20482;SDS011;10400;53.198;6.592;2022-09-01T03:09:05;1.90;;;0.90;;
20482;SDS011;10400;53.198;6.592;2022-09-01T03:11:35;2.08;;;0.80;;
20482;SDS011;10400;53.198;6.592;2022-09-01T03:14:03;1.25;;;1.00;;
20482;SDS011;10400;53.198;6.592;2022-09-01T03:16:29;3.38;;;1.30;;
20482;SDS011;10400;53.198;6.592;2022-09-01T03:18:56;3.22;;;1.42;;
20482;SDS011;10400;53.198;6.592;2022-09-01T03:21:22;2.45;;;1.50;;
20482;SDS011;10400;53.198;6.592;2022-09-01T03:23:48;3.33;;;1.65;;
20482;SDS011;10400;53.198;6.592;2022-09-01T03:26:16;1.63;;;1.17;;
20482;SDS011;10400;53.198;6.592;2022-09-01T03:28:45;2.75;;;1.48;;
20482;SDS011;10400;53.198;6.592;2022-09-01T03:31:11;2.90;;;1.30;;
20482;SDS011;10400;53.198;6.592;2022-09-01T03:33:36;3.58;;;1.50;;
20482;SDS011;10400;53.198;6.592;2022-09-01T03:36:03;3.60;;;1.27;;
20482;SDS011;10400;53.198;6.592;2022-09-01T03:38:29;3.72;;;1.23;;
20482;SDS011;10400;53.198;6.592;2022-09-01T03:41:00;1.20;;;1.10;;
20482;SDS011;10400;53.198;6.592;2022-09-01T03:43:29;2.88;;;1.20;;
20482;SDS011;10400;53.198;6.592;2022-09-01T03:45:57;2.38;;;1.13;;
20482;SDS011;10400;53.198;6.592;2022-09-01T03:48:29;3.28;;;1.30;;
20482;SDS011;10400;53.198;6.592;2022-09-01T03:50:56;1.70;;;1.17;;
20482;SDS011;10400;53.198;6.592;2022-09-01T03:53:27;1.48;;;1.10;;
20482;SDS011;10400;53.198;6.592;2022-09-01T03:55:54;2.10;;;1.25;;
20482;SDS011;10400;53.198;6.592;2022-09-01T03:58:22;2.17;;;1.20;;
20482;SDS011;10400;53.198;6.592;2022-09-01T04:00:52;1.13;;;1.00;;
20482;SDS011;10400;53.198;6.592;2022-09-01T04:03:20;3.10;;;1.30;;
20482;SDS011;10400;53.198;6.592;2022-09-01T04:05:52;1.20;;;1.10;;
20482;SDS011;10400;53.198;6.592;2022-09-01T04:08:19;2.15;;;1.10;;
20482;SDS011;10400;53.198;6.592;2022-09-01T04:10:51;1.83;;;1.17;;
20482;SDS011;10400;53.198;6.592;2022-09-01T04:13:19;4.65;;;1.10;;
20482;SDS011;10400;53.198;6.592;2022-09-01T04:15:50;2.17;;;1.60;;
20482;SDS011;10400;53.198;6.592;2022-09-01T04:18:17;1.60;;;1.35;;
20482;SDS011;10400;53.198;6.592;2022-09-01T04:20:50;1.80;;;1.40;;
20482;SDS011;10400;53.198;6.592;2022-09-01T04:28:33;1.55;;;1.30;;
20482;SDS011;10400;53.198;6.592;2022-09-01T04:31:03;3.80;;;1.63;;
20482;SDS011;10400;53.198;6.592;2022-09-01T04:33:33;3.35;;;1.70;;
20482;SDS011;10400;53.198;6.592;2022-09-01T04:36:13;1.85;;;1.42;;
20482;SDS011;10400;53.198;6.592;2022-09-01T04:38:46;3.55;;;1.38;;
20482;SDS011;10400;53.198;6.592;2022-09-01T04:41:13;3.47;;;1.80;;
20482;SDS011;10400;53.198;6.592;2022-09-01T04:43:42;3.90;;;1.60;;
20482;SDS011;10400;53.198;6.592;2022-09-01T04:46:09;1.85;;;1.27;;
20482;SDS011;10400;53.198;6.592;2022-09-01T04:48:38;2.20;;;1.40;;
20482;SDS011;10400;53.198;6.592;2022-09-01T04:51:06;4.20;;;1.80;;
20482;SDS011;10400;53.198;6.592;2022-09-01T04:53:34;3.38;;;2.00;;
20482;SDS011;10400;53.198;6.592;2022-09-01T04:56:07;3.30;;;2.00;;
20482;SDS011;10400;53.198;6.592;2022-09-01T04:58:35;3.40;;;2.10;;
20482;SDS011;10400;53.198;6.592;2022-09-01T05:01:01;3.83;;;1.85;;
20482;SDS011;10400;53.198;6.592;2022-09-01T05:03:37;4.88;;;1.65;;
20482;SDS011;10400;53.198;6.592;2022-09-01T05:06:03;2.20;;;1.60;;
20482;SDS011;10400;53.198;6.592;2022-09-01T05:08:29;3.50;;;1.67;;
20482;SDS011;10400;53.198;6.592;2022-09-01T05:10:56;2.50;;;1.90;;
20482;SDS011;10400;53.198;6.592;2022-09-01T05:13:22;1.98;;;1.27;;
20482;SDS011;10400;53.198;6.592;2022-09-01T05:15:58;4.38;;;1.60;;
20482;SDS011;10400;53.198;6.592;2022-09-01T05:18:30;2.67;;;1.70;;
20482;SDS011;10400;53.198;6.592;2022-09-01T05:20:56;10.25;;;2.00;;
20482;SDS011;10400;53.198;6.592;2022-09-01T05:23:22;3.05;;;1.88;;
20482;SDS011;10400;53.198;6.592;2022-09-01T05:25:50;4.05;;;1.77;;
20482;SDS011;10400;53.198;6.592;2022-09-01T05:28:20;3.75;;;1.80;;
20482;SDS011;10400;53.198;6.592;2022-09-01T05:30:49;1.98;;;1.55;;
20482;SDS011;10400;53.198;6.592;2022-09-01T05:33:18;2.72;;;1.75;;
20482;SDS011;10400;53.198;6.592;2022-09-01T05:35:56;3.28;;;1.67;;
20482;SDS011;10400;53.198;6.592;2022-09-01T05:38:26;1.65;;;1.55;;
20482;SDS011;10400;53.198;6.592;2022-09-01T05:40:58;3.65;;;1.90;;
20482;SDS011;10400;53.198;6.592;2022-09-01T05:43:27;4.53;;;1.85;;
20482;SDS011;10400;53.198;6.592;2022-09-01T05:45:54;2.85;;;1.80;;
20482;SDS011;10400;53.198;6.592;2022-09-01T05:48:21;3.95;;;1.90;;
20482;SDS011;10400;53.198;6.592;2022-09-01T05:50:48;6.15;;;2.45;;
20482;SDS011;10400;53.198;6.592;2022-09-01T05:53:16;4.03;;;1.92;;
20482;SDS011;10400;53.198;6.592;2022-09-01T05:55:44;4.30;;;2.50;;
20482;SDS011;10400;53.198;6.592;2022-09-01T05:58:14;4.68;;;2.60;;
20482;SDS011;10400;53.198;6.592;2022-09-01T06:00:45;4.63;;;2.60;;
20482;SDS011;10400;53.198;6.592;2022-09-01T06:03:13;3.55;;;2.58;;
20482;SDS011;10400;53.198;6.592;2022-09-01T06:05:39;6.35;;;2.90;;
20482;SDS011;10400;53.198;6.592;2022-09-01T06:08:06;6.75;;;2.75;;
20482;SDS011;10400;53.198;6.592;2022-09-01T06:10:35;3.33;;;2.55;;
20482;SDS011;10400;53.198;6.592;2022-09-01T06:13:04;4.65;;;2.80;;
20482;SDS011;10400;53.198;6.592;2022-09-01T06:15:34;2.60;;;2.30;;
20482;SDS011;10400;53.198;6.592;2022-09-01T06:18:06;3.75;;;2.70;;
20482;SDS011;10400;53.198;6.592;2022-09-01T06:20:37;7.47;;;2.20;;
20482;SDS011;10400;53.198;6.592;2022-09-01T06:23:04;2.40;;;2.10;;
20482;SDS011;10400;53.198;6.592;2022-09-01T06:25:31;4.53;;;2.13;;
20482;SDS011;10400;53.198;6.592;2022-09-01T06:27:57;3.63;;;2.00;;
20482;SDS011;10400;53.198;6.592;2022-09-01T06:30:24;5.50;;;2.35;;
20482;SDS011;10400;53.198;6.592;2022-09-01T06:32:53;3.50;;;2.00;;
20482;SDS011;10400;53.198;6.592;2022-09-01T06:35:19;2.60;;;1.70;;
20482;SDS011;10400;53.198;6.592;2022-09-01T06:37:49;3.60;;;2.00;;
20482;SDS011;10400;53.198;6.592;2022-09-01T06:40:15;3.40;;;2.03;;
20482;SDS011;10400;53.198;6.592;2022-09-01T06:42:51;3.50;;;1.83;;
20482;SDS011;10400;53.198;6.592;2022-09-01T06:45:18;4.18;;;2.00;;
20482;SDS011;10400;53.198;6.592;2022-09-01T06:47:46;2.53;;;2.05;;
20482;SDS011;10400;53.198;6.592;2022-09-01T06:50:15;5.50;;;2.08;;
20482;SDS011;10400;53.198;6.592;2022-09-01T06:52:43;2.28;;;2.05;;
20482;SDS011;10400;53.198;6.592;2022-09-01T06:55:11;3.05;;;2.00;;
20482;SDS011;10400;53.198;6.592;2022-09-01T06:57:38;3.50;;;2.08;;
20482;SDS011;10400;53.198;6.592;2022-09-01T07:00:09;5.65;;;1.92;;
20482;SDS011;10400;53.198;6.592;2022-09-01T07:02:45;6.45;;;1.90;;
20482;SDS011;10400;53.198;6.592;2022-09-01T07:05:13;1.85;;;1.58;;
20482;SDS011;10400;53.198;6.592;2022-09-01T07:07:47;8.43;;;1.80;;
20482;SDS011;10400;53.198;6.592;2022-09-01T07:10:15;5.15;;;1.60;;
20482;SDS011;10400;53.198;6.592;2022-09-01T07:12:50;3.50;;;1.95;;
20482;SDS011;10400;53.198;6.592;2022-09-01T07:15:17;2.28;;;1.38;;
20482;SDS011;10400;53.198;6.592;2022-09-01T07:18:01;2.70;;;1.58;;
20482;SDS011;10400;53.198;6.592;2022-09-01T07:20:27;4.22;;;1.80;;
20482;SDS011;10400;53.198;6.592;2022-09-01T07:22:53;5.93;;;2.05;;
20482;SDS011;10400;53.198;6.592;2022-09-01T07:25:20;6.43;;;1.75;;
20482;SDS011;10400;53.198;6.592;2022-09-01T07:27:46;2.80;;;1.20;;
20482;SDS011;10400;53.198;6.592;2022-09-01T07:30:19;1.83;;;1.45;;
20482;SDS011;10400;53.198;6.592;2022-09-01T07:32:46;1.98;;;1.40;;
20482;SDS011;10400;53.198;6.592;2022-09-01T07:35:16;1.60;;;1.38;;
20482;SDS011;10400;53.198;6.592;2022-09-01T07:37:45;3.80;;;1.65;;
20482;SDS011;10400;53.198;6.592;2022-09-01T07:40:14;4.97;;;1.65;;
20482;SDS011;10400;53.198;6.592;2022-09-01T07:42:43;2.28;;;1.30;;
20482;SDS011;10400;53.198;6.592;2022-09-01T07:45:13;3.38;;;1.27;;
20482;SDS011;10400;53.198;6.592;2022-09-01T07:47:41;3.17;;;1.27;;
20482;SDS011;10400;53.198;6.592;2022-09-01T07:50:09;4.85;;;1.60;;
20482;SDS011;10400;53.198;6.592;2022-09-01T07:52:37;2.90;;;1.55;;
20482;SDS011;10400;53.198;6.592;2022-09-01T07:55:14;2.20;;;1.10;;
20482;SDS011;10400;53.198;6.592;2022-09-01T07:57:41;1.83;;;1.10;;
20482;SDS011;10400;53.198;6.592;2022-09-01T08:00:10;3.17;;;1.55;;
20482;SDS011;10400;53.198;6.592;2022-09-01T08:02:38;4.03;;;1.35;;
20482;SDS011;10400;53.198;6.592;2022-09-01T08:05:09;6.93;;;1.58;;
20482;SDS011;10400;53.198;6.592;2022-09-01T08:07:37;4.47;;;1.20;;
20482;SDS011;10400;53.198;6.592;2022-09-01T08:10:04;2.60;;;1.17;;
20482;SDS011;10400;53.198;6.592;2022-09-01T08:12:31;2.72;;;1.40;;
20482;SDS011;10400;53.198;6.592;2022-09-01T08:14:57;2.33;;;0.93;;
20482;SDS011;10400;53.198;6.592;2022-09-01T08:17:23;3.42;;;1.00;;
20482;SDS011;10400;53.198;6.592;2022-09-01T08:19:49;3.80;;;1.10;;
20482;SDS011;10400;53.198;6.592;2022-09-01T08:22:14;1.95;;;1.05;;
20482;SDS011;10400;53.198;6.592;2022-09-01T08:24:41;2.55;;;1.23;;
20482;SDS011;10400;53.198;6.592;2022-09-01T08:27:06;3.92;;;0.90;;
20482;SDS011;10400;53.198;6.592;2022-09-01T08:29:32;2.63;;;0.98;;
20482;SDS011;10400;53.198;6.592;2022-09-01T08:31:58;3.83;;;1.20;;
20482;SDS011;10400;53.198;6.592;2022-09-01T08:34:24;1.85;;;1.05;;
20482;SDS011;10400;53.198;6.592;2022-09-01T08:36:50;4.90;;;1.20;;
20482;SDS011;10400;53.198;6.592;2022-09-01T08:39:17;2.40;;;1.15;;
20482;SDS011;10400;53.198;6.592;2022-09-01T08:41:57;5.47;;;1.15;;
20482;SDS011;10400;53.198;6.592;2022-09-01T08:47:28;3.42;;;1.10;;
20482;SDS011;10400;53.198;6.592;2022-09-01T08:49:55;3.15;;;0.80;;
20482;SDS011;10400;53.198;6.592;2022-09-01T08:52:25;4.25;;;1.00;;
20482;SDS011;10400;53.198;6.592;2022-09-01T08:57:39;2.17;;;1.30;;
20482;SDS011;10400;53.198;6.592;2022-09-01T09:00:09;3.08;;;1.00;;
20482;SDS011;10400;53.198;6.592;2022-09-01T09:13:11;2.40;;;0.93;;
20482;SDS011;10400;53.198;6.592;2022-09-01T09:16:00;2.53;;;0.73;;
20482;SDS011;10400;53.198;6.592;2022-09-01T09:18:49;2.63;;;1.13;;
20482;SDS011;10400;53.198;6.592;2022-09-01T09:21:28;1.88;;;0.80;;
20482;SDS011;10400;53.198;6.592;2022-09-01T09:24:08;4.45;;;1.08;;
20482;SDS011;10400;53.198;6.592;2022-09-01T09:27:36;7.40;;;1.20;;
20482;SDS011;10400;53.198;6.592;2022-09-01T09:30:03;3.20;;;0.90;;
20482;SDS011;10400;53.198;6.592;2022-09-01T09:35:32;3.47;;;0.70;;
20482;SDS011;10400;53.198;6.592;2022-09-01T09:43:34;1.75;;;0.65;;
20482;SDS011;10400;53.198;6.592;2022-09-01T09:46:25;1.27;;;0.80;;
20482;SDS011;10400;53.198;6.592;2022-09-01T09:49:11;4.03;;;1.00;;
20482;SDS011;10400;53.198;6.592;2022-09-01T09:51:53;2.97;;;1.00;;
20482;SDS011;10400;53.198;6.592;2022-09-01T09:54:37;2.13;;;0.88;;
20482;SDS011;10400;53.198;6.592;2022-09-01T09:57:09;7.68;;;1.08;;
20482;SDS011;10400;53.198;6.592;2022-09-01T09:59:42;3.00;;;0.75;;
20482;SDS011;10400;53.198;6.592;2022-09-01T10:02:30;2.28;;;0.90;;
20482;SDS011;10400;53.198;6.592;2022-09-01T10:04:59;2.03;;;1.00;;
20482;SDS011;10400;53.198;6.592;2022-09-01T10:07:45;3.55;;;1.02;;
20482;SDS011;10400;53.198;6.592;2022-09-01T10:10:25;2.25;;;0.90;;
20482;SDS011;10400;53.198;6.592;2022-09-01T10:12:52;3.70;;;1.23;;
20482;SDS011;10400;53.198;6.592;2022-09-01T10:15:19;2.95;;;0.88;;
20482;SDS011;10400;53.198;6.592;2022-09-01T10:17:48;2.45;;;0.82;;
20482;SDS011;10400;53.198;6.592;2022-09-01T10:20:18;3.50;;;0.98;;
20482;SDS011;10400;53.198;6.592;2022-09-01T10:22:47;1.60;;;0.80;;
20482;SDS011;10400;53.198;6.592;2022-09-01T10:25:20;1.58;;;0.90;;
20482;SDS011;10400;53.198;6.592;2022-09-01T10:27:55;1.90;;;1.10;;
20482;SDS011;10400;53.198;6.592;2022-09-01T10:30:43;2.13;;;0.90;;
20482;SDS011;10400;53.198;6.592;2022-09-01T10:33:11;3.38;;;0.95;;
20482;SDS011;10400;53.198;6.592;2022-09-01T10:35:45;2.90;;;0.95;;
20482;SDS011;10400;53.198;6.592;2022-09-01T10:38:23;1.17;;;0.70;;
20482;SDS011;10400;53.198;6.592;2022-09-01T10:40:51;3.35;;;0.70;;
20482;SDS011;10400;53.198;6.592;2022-09-01T10:43:48;2.33;;;0.70;;
20482;SDS011;10400;53.198;6.592;2022-09-01T10:48:47;1.33;;;0.85;;
20482;SDS011;10400;53.198;6.592;2022-09-01T11:04:09;1.67;;;0.70;;
20482;SDS011;10400;53.198;6.592;2022-09-01T11:09:05;2.50;;;0.60;;
20482;SDS011;10400;53.198;6.592;2022-09-01T11:14:27;3.08;;;0.82;;
20482;SDS011;10400;53.198;6.592;2022-09-01T11:19:41;3.83;;;0.60;;
20482;SDS011;10400;53.198;6.592;2022-09-01T11:27:07;4.40;;;0.88;;
20482;SDS011;10400;53.198;6.592;2022-09-01T11:32:24;3.75;;;0.77;;
20482;SDS011;10400;53.198;6.592;2022-09-01T11:34:56;3.28;;;0.75;;
20482;SDS011;10400;53.198;6.592;2022-09-01T11:37:25;2.17;;;0.70;;
20482;SDS011;10400;53.198;6.592;2022-09-01T11:40:03;4.30;;;0.90;;
20482;SDS011;10400;53.198;6.592;2022-09-01T11:59:51;0.88;;;0.60;;
20482;SDS011;10400;53.198;6.592;2022-09-01T12:02:57;2.35;;;0.60;;
20482;SDS011;10400;53.198;6.592;2022-09-01T12:26:05;3.25;;;0.80;;
20482;SDS011;10400;53.198;6.592;2022-09-01T12:29:06;1.52;;;0.70;;
20482;SDS011;10400;53.198;6.592;2022-09-01T12:41:37;1.60;;;0.70;;
20482;SDS011;10400;53.198;6.592;2022-09-01T12:44:31;4.47;;;0.85;;
20482;SDS011;10400;53.198;6.592;2022-09-01T12:50:46;2.28;;;0.68;;
20482;SDS011;10400;53.198;6.592;2022-09-01T12:53:00;1.83;;;0.47;;
20482;SDS011;10400;53.198;6.592;2022-09-01T12:55:32;1.40;;;0.55;;
20482;SDS011;10400;53.198;6.592;2022-09-01T12:58:20;1.92;;;0.60;;
20482;SDS011;10400;53.198;6.592;2022-09-01T13:01:01;0.88;;;0.60;;
20482;SDS011;10400;53.198;6.592;2022-09-01T13:06:33;3.08;;;0.70;;
20482;SDS011;10400;53.198;6.592;2022-09-01T13:08:59;1.50;;;0.65;;
20482;SDS011;10400;53.198;6.592;2022-09-01T13:11:31;1.80;;;0.60;;
20482;SDS011;10400;53.198;6.592;2022-09-01T13:14:30;2.80;;;0.73;;
20482;SDS011;10400;53.198;6.592;2022-09-01T13:28:08;3.38;;;0.80;;
20482;SDS011;10400;53.198;6.592;2022-09-01T13:30:56;1.90;;;0.82;;
20482;SDS011;10400;53.198;6.592;2022-09-01T13:33:33;1.63;;;0.60;;
20482;SDS011;10400;53.198;6.592;2022-09-01T13:36:00;1.00;;;0.70;;
20482;SDS011;10400;53.198;6.592;2022-09-01T13:38:36;3.85;;;0.70;;
20482;SDS011;10400;53.198;6.592;2022-09-01T13:41:16;3.80;;;0.75;;
20482;SDS011;10400;53.198;6.592;2022-09-01T13:46:41;4.72;;;0.88;;
20482;SDS011;10400;53.198;6.592;2022-09-01T13:49:14;2.35;;;0.50;;
20482;SDS011;10400;53.198;6.592;2022-09-01T14:04:25;2.28;;;0.60;;
20482;SDS011;10400;53.198;6.592;2022-09-01T14:06:54;2.45;;;0.88;;
20482;SDS011;10400;53.198;6.592;2022-09-01T14:13:13;2.10;;;0.43;;
20482;SDS011;10400;53.198;6.592;2022-09-01T14:16:14;4.25;;;0.70;;
20482;SDS011;10400;53.198;6.592;2022-09-01T14:22:30;2.47;;;0.50;;
20482;SDS011;10400;53.198;6.592;2022-09-01T14:32:31;1.95;;;0.68;;
20482;SDS011;10400;53.198;6.592;2022-09-01T15:06:30;0.88;;;0.60;;
20482;SDS011;10400;53.198;6.592;2022-09-01T15:13:15;1.90;;;0.52;;
20482;SDS011;10400;53.198;6.592;2022-09-01T15:19:23;4.63;;;1.00;;
20482;SDS011;10400;53.198;6.592;2022-09-01T15:22:04;3.95;;;0.82;;
20482;SDS011;10400;53.198;6.592;2022-09-01T15:24:34;3.58;;;0.63;;
20482;SDS011;10400;53.198;6.592;2022-09-01T15:34:23;2.15;;;0.40;;
20482;SDS011;10400;53.198;6.592;2022-09-01T15:44:00;2.05;;;0.60;;
20482;SDS011;10400;53.198;6.592;2022-09-01T15:50:16;2.72;;;0.63;;
20482;SDS011;10400;53.198;6.592;2022-09-01T15:53:04;3.65;;;0.70;;
20482;SDS011;10400;53.198;6.592;2022-09-01T15:56:12;1.05;;;0.52;;
20482;SDS011;10400;53.198;6.592;2022-09-01T15:58:47;2.15;;;0.60;;
20482;SDS011;10400;53.198;6.592;2022-09-01T16:01:51;2.13;;;0.40;;
20482;SDS011;10400;53.198;6.592;2022-09-01T16:04:25;0.88;;;0.45;;
20482;SDS011;10400;53.198;6.592;2022-09-01T16:07:00;2.72;;;0.60;;
20482;SDS011;10400;53.198;6.592;2022-09-01T16:09:32;0.98;;;0.38;;
20482;SDS011;10400;53.198;6.592;2022-09-01T16:12:05;1.63;;;0.50;;
20482;SDS011;10400;53.198;6.592;2022-09-01T16:14:46;1.30;;;0.50;;
20482;SDS011;10400;53.198;6.592;2022-09-01T16:17:40;2.63;;;0.50;;
20482;SDS011;10400;53.198;6.592;2022-09-01T16:20:23;3.47;;;0.65;;
20482;SDS011;10400;53.198;6.592;2022-09-01T16:24:01;5.80;;;0.77;;
20482;SDS011;10400;53.198;6.592;2022-09-01T16:26:30;1.45;;;0.60;;
20482;SDS011;10400;53.198;6.592;2022-09-01T16:28:59;1.90;;;0.50;;
20482;SDS011;10400;53.198;6.592;2022-09-01T16:31:31;2.25;;;0.60;;
20482;SDS011;10400;53.198;6.592;2022-09-01T16:33:59;2.50;;;0.70;;
20482;SDS011;10400;53.198;6.592;2022-09-01T16:47:12;1.02;;;0.60;;
20482;SDS011;10400;53.198;6.592;2022-09-01T16:52:22;2.55;;;0.50;;
20482;SDS011;10400;53.198;6.592;2022-09-01T16:57:52;1.55;;;0.70;;
20482;SDS011;10400;53.198;6.592;2022-09-01T17:00:36;2.00;;;0.50;;
20482;SDS011;10400;53.198;6.592;2022-09-01T17:03:14;1.85;;;0.43;;
20482;SDS011;10400;53.198;6.592;2022-09-01T17:06:07;2.42;;;0.57;;
20482;SDS011;10400;53.198;6.592;2022-09-01T17:08:55;5.65;;;0.57;;
20482;SDS011;10400;53.198;6.592;2022-09-01T17:11:42;1.70;;;0.68;;
20482;SDS011;10400;53.198;6.592;2022-09-01T17:14:32;0.68;;;0.32;;
20482;SDS011;10400;53.198;6.592;2022-09-01T17:17:08;0.52;;;0.52;;
20482;SDS011;10400;53.198;6.592;2022-09-01T17:19:40;1.33;;;0.68;;
20482;SDS011;10400;53.198;6.592;2022-09-01T17:22:10;1.77;;;0.40;;
20482;SDS011;10400;53.198;6.592;2022-09-01T17:24:42;4.47;;;0.60;;
20482;SDS011;10400;53.198;6.592;2022-09-01T17:27:13;2.78;;;0.60;;
20482;SDS011;10400;53.198;6.592;2022-09-01T17:29:49;1.65;;;0.43;;
20482;SDS011;10400;53.198;6.592;2022-09-01T17:42:51;1.60;;;0.50;;
20482;SDS011;10400;53.198;6.592;2022-09-01T17:45:49;1.23;;;0.47;;
20482;SDS011;10400;53.198;6.592;2022-09-01T17:48:42;1.10;;;0.45;;
20482;SDS011;10400;53.198;6.592;2022-09-01T17:51:43;4.03;;;0.32;;
20482;SDS011;10400;53.198;6.592;2022-09-01T18:10:16;1.85;;;0.70;;
20482;SDS011;10400;53.198;6.592;2022-09-01T18:12:57;2.05;;;0.40;;
20482;SDS011;10400;53.198;6.592;2022-09-01T18:15:26;1.55;;;0.60;;
20482;SDS011;10400;53.198;6.592;2022-09-01T18:20:27;2.78;;;0.50;;
20482;SDS011;10400;53.198;6.592;2022-09-01T18:23:04;1.02;;;0.50;;
20482;SDS011;10400;53.198;6.592;2022-09-01T18:25:39;4.07;;;1.35;;
20482;SDS011;10400;53.198;6.592;2022-09-01T18:28:24;2.47;;;1.13;;
20482;SDS011;10400;53.198;6.592;2022-09-01T18:36:51;2.40;;;0.70;;
20482;SDS011;10400;53.198;6.592;2022-09-01T18:44:48;3.22;;;0.80;;
20482;SDS011;10400;53.198;6.592;2022-09-01T18:47:36;2.65;;;0.85;;
20482;SDS011;10400;53.198;6.592;2022-09-01T18:58:00;2.90;;;0.80;;
20482;SDS011;10400;53.198;6.592;2022-09-01T19:00:35;1.65;;;0.80;;
20482;SDS011;10400;53.198;6.592;2022-09-01T19:03:23;1.48;;;0.68;;
20482;SDS011;10400;53.198;6.592;2022-09-01T19:14:05;4.32;;;1.00;;
20482;SDS011;10400;53.198;6.592;2022-09-01T19:20:01;3.92;;;0.93;;
20482;SDS011;10400;53.198;6.592;2022-09-01T19:25:14;7.03;;;1.00;;
20482;SDS011;10400;53.198;6.592;2022-09-01T19:30:49;6.00;;;0.90;;
20482;SDS011;10400;53.198;6.592;2022-09-01T19:33:38;6.47;;;1.08;;
20482;SDS011;10400;53.198;6.592;2022-09-01T19:36:06;2.17;;;0.90;;
20482;SDS011;10400;53.198;6.592;2022-09-01T19:38:35;2.70;;;1.00;;
20482;SDS011;10400;53.198;6.592;2022-09-01T19:43:41;4.13;;;0.90;;
20482;SDS011;10400;53.198;6.592;2022-09-01T19:54:39;1.73;;;1.08;;
20482;SDS011;10400;53.198;6.592;2022-09-01T19:57:54;6.28;;;1.25;;
20482;SDS011;10400;53.198;6.592;2022-09-01T20:03:05;2.20;;;0.80;;
20482;SDS011;10400;53.198;6.592;2022-09-01T20:05:38;2.42;;;1.15;;
20482;SDS011;10400;53.198;6.592;2022-09-01T20:16:08;3.05;;;1.05;;
20482;SDS011;10400;53.198;6.592;2022-09-01T20:18:43;2.85;;;1.20;;
20482;SDS011;10400;53.198;6.592;2022-09-01T20:21:12;2.03;;;1.05;;
20482;SDS011;10400;53.198;6.592;2022-09-01T20:23:47;6.13;;;1.35;;
20482;SDS011;10400;53.198;6.592;2022-09-01T20:26:44;2.22;;;1.33;;
20482;SDS011;10400;53.198;6.592;2022-09-01T20:29:20;2.83;;;1.05;;
20482;SDS011;10400;53.198;6.592;2022-09-01T20:31:54;1.95;;;0.95;;
20482;SDS011;10400;53.198;6.592;2022-09-01T20:36:53;2.22;;;1.00;;
20482;SDS011;10400;53.198;6.592;2022-09-01T20:39:30;1.92;;;1.10;;
20482;SDS011;10400;53.198;6.592;2022-09-01T20:45:21;4.20;;;1.00;;